createdAt,value
2018-01-02T00:01:24.369Z,1.37
2018-01-02T00:03:51.831Z,0.67
2018-01-02T00:06:19.366Z,0.57
2018-01-02T00:08:46.825Z,0.80
2018-01-02T00:11:14.298Z,1.23
2018-01-02T00:13:41.792Z,0.77
2018-01-02T00:16:09.257Z,1.10
2018-01-02T00:18:36.966Z,1.00
2018-01-02T00:21:04.457Z,1.67
2018-01-02T00:23:31.882Z,2.40
2018-01-02T00:25:59.319Z,2.23
2018-01-02T00:28:26.788Z,1.77
2018-01-02T00:30:54.214Z,2.43
2018-01-02T00:33:21.646Z,0.73
2018-01-02T00:35:49.850Z,1.73
2018-01-02T00:38:17.286Z,1.37
2018-01-02T00:40:45.486Z,1.23
2018-01-02T00:43:12.915Z,1.73
2018-01-02T00:45:41.165Z,1.60
2018-01-02T00:48:09.436Z,1.23
2018-01-02T00:50:36.854Z,1.07
2018-01-02T00:53:04.328Z,0.80
2018-01-02T00:55:32.014Z,0.93
2018-01-02T00:57:59.446Z,0.60
2018-01-02T01:00:26.883Z,0.90
2018-01-02T01:02:54.362Z,2.30
2018-01-02T01:05:21.798Z,0.63
2018-01-02T01:07:49.230Z,0.80
2018-01-02T01:10:17.430Z,0.50
2018-01-02T01:12:44.863Z,2.10
2018-01-02T01:15:12.300Z,1.70
2018-01-02T01:17:40.515Z,2.17
2018-01-02T01:20:07.937Z,2.13
2018-01-02T01:22:36.679Z,0.87
2018-01-02T01:25:04.119Z,2.87
2018-01-02T01:27:31.559Z,1.57
2018-01-02T01:29:58.991Z,5.20
2018-01-02T01:32:27.190Z,1.13
2018-01-02T01:34:54.617Z,1.67
2018-01-02T01:37:22.855Z,1.47
2018-01-02T01:39:50.286Z,1.30
2018-01-02T01:42:17.730Z,1.10
2018-01-02T01:44:45.163Z,1.70
2018-01-02T01:47:13.367Z,2.80
2018-01-02T01:49:40.850Z,1.13
2018-01-02T01:52:08.294Z,2.87
2018-01-02T01:54:35.761Z,1.17
2018-01-02T01:57:03.199Z,1.10
2018-01-02T01:59:30.626Z,1.20
2018-01-02T02:01:58.830Z,2.23
2018-01-02T02:04:26.262Z,0.90
2018-01-02T02:06:54.822Z,4.27
2018-01-02T02:09:23.018Z,1.60
2018-01-02T02:11:51.220Z,3.17
2018-01-02T02:14:19.433Z,2.43
2018-01-02T02:16:47.279Z,0.93
2018-01-02T02:19:14.711Z,4.67
2018-01-02T02:21:42.142Z,1.87
2018-01-02T02:24:10.363Z,1.03
2018-01-02T02:26:37.803Z,1.90
2018-01-02T02:29:05.239Z,1.10
2018-01-02T02:31:32.683Z,2.23
2018-01-02T02:34:00.873Z,1.87
2018-01-02T02:36:28.306Z,1.30
2018-01-02T02:38:56.507Z,1.67
2018-01-02T02:41:23.947Z,3.10
2018-01-02T02:43:52.263Z,4.20
2018-01-02T02:46:19.722Z,2.10
2018-01-02T02:48:47.156Z,1.83
2018-01-02T02:51:14.586Z,1.57
2018-01-02T02:53:42.787Z,1.00
2018-01-02T02:56:10.214Z,1.97
2018-01-02T02:58:38.419Z,3.10
2018-01-02T03:01:05.850Z,2.60
2018-01-02T03:03:34.050Z,1.70
2018-01-02T03:06:01.491Z,1.67
2018-01-02T03:08:28.927Z,2.93
2018-01-02T03:10:57.113Z,2.23
2018-01-02T03:13:24.550Z,1.47
2018-01-02T03:15:52.122Z,1.00
2018-01-02T03:18:20.351Z,0.73
2018-01-02T03:20:48.079Z,2.13
2018-01-02T03:23:15.515Z,1.70
2018-01-02T03:25:43.710Z,2.50
2018-01-02T03:28:11.155Z,1.10
2018-01-02T03:30:39.352Z,1.10
2018-01-02T03:33:06.794Z,1.50
2018-01-02T03:35:34.287Z,5.63
2018-01-02T03:38:01.722Z,1.03
2018-01-02T03:40:29.163Z,2.13
2018-01-02T03:42:56.610Z,3.73
2018-01-02T03:45:25.019Z,3.50
2018-01-02T03:47:52.490Z,1.43
2018-01-02T03:50:19.942Z,4.13
2018-01-02T03:52:47.383Z,1.23
2018-01-02T03:55:14.815Z,1.63
2018-01-02T03:57:42.246Z,1.10
2018-01-02T04:00:09.683Z,2.63
2018-01-02T04:02:37.134Z,1.83
2018-01-02T04:05:04.566Z,2.50
2018-01-02T04:07:32.017Z,1.10
2018-01-02T04:09:59.490Z,1.83
2018-01-02T04:12:26.923Z,2.00
2018-01-02T04:14:54.359Z,1.90
2018-01-02T04:17:22.578Z,3.73
2018-01-02T04:19:50.019Z,2.67
2018-01-02T04:22:17.450Z,1.67
2018-01-02T04:24:44.891Z,2.87
2018-01-02T04:27:13.145Z,2.50
2018-01-02T04:29:40.578Z,0.70
2018-01-02T04:32:08.058Z,1.50
2018-01-02T04:34:37.112Z,1.63
2018-01-02T04:37:04.586Z,0.80
2018-01-02T04:39:32.026Z,1.80
2018-01-02T04:41:59.504Z,0.83
2018-01-02T04:44:27.366Z,2.83
2018-01-02T04:46:54.822Z,0.50
2018-01-02T04:49:22.262Z,1.47
2018-01-02T04:51:49.840Z,1.53
2018-01-02T04:54:17.275Z,0.67
2018-01-02T04:56:44.706Z,1.03
2018-01-02T04:59:12.906Z,0.40
2018-01-02T05:01:40.384Z,0.50
2018-01-02T05:04:07.818Z,0.90
2018-01-02T05:06:35.977Z,0.83
2018-01-02T05:09:03.406Z,1.10
2018-01-02T05:11:31.643Z,2.07
2018-01-02T05:13:59.082Z,2.20
2018-01-02T05:16:26.511Z,3.87
2018-01-02T05:18:53.955Z,2.60
2018-01-02T05:21:22.182Z,2.23
2018-01-02T05:23:49.617Z,1.47
2018-01-02T05:26:17.099Z,2.80
2018-01-02T05:28:44.534Z,2.70
2018-01-02T05:31:11.975Z,4.50
2018-01-02T05:33:40.922Z,3.87
2018-01-02T05:36:09.928Z,1.30
2018-01-02T05:38:37.463Z,2.10
2018-01-02T05:41:04.898Z,1.10
2018-01-02T05:43:32.334Z,2.80
2018-01-02T05:45:59.761Z,2.20
2018-01-02T05:48:27.961Z,1.73
2018-01-02T05:50:55.994Z,3.83
2018-01-02T05:53:23.431Z,1.17
2018-01-02T05:55:50.865Z,2.73
2018-01-02T05:58:18.294Z,1.63
2018-01-02T06:00:45.733Z,1.90
2018-01-02T06:03:13.955Z,1.27
2018-01-02T06:05:41.386Z,2.30
2018-01-02T06:08:08.879Z,4.97
2018-01-02T06:10:36.626Z,3.60
2018-01-02T06:13:04.061Z,3.30
2018-01-02T06:15:32.287Z,4.90
2018-01-02T06:17:59.722Z,1.90
2018-01-02T06:20:27.268Z,1.70
2018-01-02T06:22:55.310Z,3.07
2018-01-02T06:25:23.980Z,4.27
2018-01-02T06:27:51.394Z,2.77
2018-01-02T06:30:18.855Z,3.13
2018-01-02T06:32:46.291Z,2.97
2018-01-02T06:35:13.723Z,1.93
2018-01-02T06:37:41.166Z,3.20
2018-01-02T06:40:10.127Z,3.10
2018-01-02T06:42:38.350Z,2.07
2018-01-02T06:45:05.847Z,1.23
2018-01-02T06:47:33.607Z,5.03
2018-01-02T06:50:01.039Z,2.00
2018-01-02T06:52:28.470Z,2.20
2018-01-02T06:54:57.075Z,2.10
2018-01-02T06:57:24.514Z,2.00
2018-01-02T06:59:52.733Z,2.63
2018-01-02T07:02:20.172Z,1.20
2018-01-02T07:04:47.794Z,1.00
2018-01-02T07:07:15.996Z,2.20
2018-01-02T07:09:43.425Z,1.50
2018-01-02T07:12:11.659Z,4.30
2018-01-02T07:14:39.092Z,3.00
2018-01-02T07:17:06.530Z,1.90
2018-01-02T07:19:33.962Z,1.47
2018-01-02T07:22:01.421Z,2.70
2018-01-02T07:24:28.946Z,1.20
2018-01-02T07:26:56.480Z,2.30
2018-01-02T07:29:23.900Z,1.97
2018-01-02T07:31:52.126Z,1.90
2018-01-02T07:34:19.562Z,1.23
2018-01-02T07:36:46.999Z,3.83
2018-01-02T07:39:14.440Z,2.07
2018-01-02T07:41:42.647Z,2.40
2018-01-02T07:44:10.127Z,1.20
2018-01-02T07:46:37.567Z,2.23
2018-01-02T07:49:05.038Z,2.70
2018-01-02T07:51:32.470Z,4.40
2018-01-02T07:53:59.904Z,1.93
2018-01-02T07:56:28.107Z,2.20
2018-01-02T07:58:55.547Z,1.57
2018-01-02T08:01:22.974Z,2.80
2018-01-02T08:03:51.183Z,1.60
2018-01-02T08:06:18.675Z,2.80
2018-01-02T08:08:46.126Z,2.80
2018-01-02T08:11:13.582Z,3.00
2018-01-02T08:13:41.019Z,1.80
2018-01-02T08:16:08.607Z,2.50
2018-01-02T08:18:36.043Z,2.87
2018-01-02T08:21:03.466Z,2.33
2018-01-02T08:23:30.907Z,5.27
2018-01-02T08:25:59.102Z,6.60
2018-01-02T08:28:26.547Z,2.40
2018-01-02T08:30:54.746Z,3.30
2018-01-02T08:33:22.182Z,1.30
2018-01-02T08:35:50.379Z,3.73
2018-01-02T08:38:17.818Z,3.53
2018-01-02T08:40:45.246Z,4.10
2018-01-02T08:43:12.686Z,2.27
2018-01-02T08:45:40.110Z,3.50
2018-01-02T08:48:07.576Z,4.43
2018-01-02T08:50:34.990Z,3.80
2018-01-02T08:53:03.216Z,3.20
2018-01-02T08:55:30.647Z,4.97
2018-01-02T08:57:58.090Z,4.20
2018-01-02T09:00:25.587Z,3.40
2018-01-02T09:02:53.040Z,3.83
2018-01-02T09:05:20.494Z,4.60
2018-01-02T09:07:47.952Z,3.10
2018-01-02T09:10:15.389Z,4.97
2018-01-02T09:12:47.792Z,4.20
2018-01-02T09:15:15.235Z,3.93
2018-01-02T09:17:42.666Z,2.07
2018-01-02T09:20:10.174Z,3.47
2018-01-02T09:22:37.687Z,3.10
2018-01-02T09:25:05.431Z,3.40
2018-01-02T09:27:33.646Z,4.03
2018-01-02T09:30:01.106Z,4.13
2018-01-02T09:32:28.568Z,3.07
2018-01-02T09:34:56.419Z,2.43
2018-01-02T09:37:24.295Z,4.83
2018-01-02T09:39:51.742Z,2.63
2018-01-02T09:42:19.174Z,2.23
2018-01-02T09:44:46.615Z,5.43
2018-01-02T09:47:14.814Z,7.00
2018-01-02T09:49:42.291Z,3.60
2018-01-02T09:52:09.729Z,4.77
2018-01-02T09:54:37.162Z,2.70
2018-01-02T09:57:05.389Z,2.87
2018-01-02T09:59:32.829Z,4.80
2018-01-02T10:02:00.290Z,2.10
2018-01-02T10:04:27.727Z,6.43
2018-01-02T10:06:55.159Z,4.87
2018-01-02T10:09:23.357Z,4.77
2018-01-02T10:11:50.781Z,4.33
2018-01-02T10:14:18.994Z,4.40
2018-01-02T10:16:46.417Z,2.20
2018-01-02T10:19:14.642Z,7.30
2018-01-02T10:21:42.082Z,4.43
2018-01-02T10:24:09.514Z,5.87
2018-01-02T10:26:36.947Z,4.13
2018-01-02T10:29:06.018Z,4.00
2018-01-02T10:31:33.465Z,5.70
2018-01-02T10:34:00.906Z,2.17
2018-01-02T10:36:28.348Z,1.90
2018-01-02T10:38:56.175Z,4.17
2018-01-02T10:41:24.385Z,2.73
2018-01-02T10:43:51.867Z,2.83
2018-01-02T10:46:19.302Z,3.97
2018-01-02T10:48:46.725Z,4.20
2018-01-02T10:51:14.958Z,2.77
2018-01-02T10:53:42.388Z,3.40
2018-01-02T10:56:09.821Z,3.17
2018-01-02T10:58:37.303Z,1.70
2018-01-02T11:01:04.722Z,5.63
2018-01-02T11:03:32.950Z,2.17
2018-01-02T11:06:01.079Z,1.50
2018-01-02T11:08:29.270Z,3.73
2018-01-02T11:11:02.479Z,3.03
2018-01-02T11:13:35.527Z,2.03
2018-01-02T11:16:03.732Z,1.57
2018-01-02T11:18:31.166Z,3.47
2018-01-02T11:20:59.371Z,4.20
2018-01-02T11:23:26.834Z,7.60
2018-01-02T11:25:54.275Z,2.33
2018-01-02T11:28:21.702Z,2.90
2018-01-02T11:30:49.919Z,2.00
2018-01-02T11:33:17.344Z,3.47
2018-01-02T11:35:44.779Z,3.47
2018-01-02T11:38:12.980Z,3.20
2018-01-02T11:40:40.439Z,2.20
2018-01-02T11:43:08.618Z,2.80
2018-01-02T11:45:36.059Z,4.33
2018-01-02T11:48:03.833Z,6.37
2018-01-02T11:50:31.266Z,2.50
2018-01-02T11:52:59.475Z,3.20
2018-01-02T11:55:27.254Z,7.57
2018-01-02T11:57:54.703Z,3.20
2018-01-02T12:00:22.126Z,5.03
2018-01-02T12:02:49.566Z,6.07
2018-01-02T12:05:17.802Z,4.00
2018-01-02T12:07:45.243Z,4.73
2018-01-02T12:10:12.674Z,7.77
2018-01-02T12:12:40.515Z,3.70
2018-01-02T12:15:08.715Z,4.17
2018-01-02T12:17:36.155Z,6.03
2018-01-02T12:20:04.360Z,3.13
2018-01-02T12:22:31.792Z,3.33
2018-01-02T12:24:59.995Z,5.33
2018-01-02T12:27:27.433Z,3.30
2018-01-02T12:29:54.858Z,3.37
2018-01-02T12:32:23.067Z,6.20
2018-01-02T12:34:50.495Z,3.17
2018-01-02T12:37:18.690Z,2.10
2018-01-02T12:39:46.131Z,5.33
2018-01-02T12:42:14.326Z,9.20
2018-01-02T12:44:41.763Z,2.30
2018-01-02T12:47:09.966Z,3.10
2018-01-02T12:49:37.404Z,3.93
2018-01-02T12:52:04.891Z,3.43
2018-01-02T12:54:32.314Z,4.00
2018-01-02T12:56:59.750Z,7.40
2018-01-02T12:59:27.958Z,14.57
2018-01-02T13:01:55.390Z,7.20
2018-01-02T13:04:22.906Z,2.23
2018-01-02T13:06:50.335Z,5.20
2018-01-02T13:09:17.773Z,2.80
2018-01-02T13:11:45.278Z,2.27
2018-01-02T13:14:12.719Z,2.23
2018-01-02T13:16:40.143Z,5.57
2018-01-02T13:19:07.578Z,3.40
2018-01-02T13:21:35.778Z,3.10
2018-01-02T13:24:03.267Z,3.53
2018-01-02T13:26:30.698Z,3.57
2018-01-02T13:28:58.139Z,1.83
2018-01-02T13:31:25.576Z,3.13
2018-01-02T13:33:53.778Z,3.43
2018-01-02T13:36:21.210Z,4.13
2018-01-02T13:38:49.415Z,2.00
2018-01-02T13:41:16.847Z,5.13
2018-01-02T13:43:45.072Z,1.43
2018-01-02T13:46:12.495Z,2.93
2018-01-02T13:48:39.933Z,3.00
2018-01-02T13:51:08.122Z,4.13
2018-01-02T13:53:35.562Z,4.07
2018-01-02T13:56:03.759Z,2.60
2018-01-02T13:58:31.251Z,3.40
2018-01-02T14:00:58.974Z,3.90
2018-01-02T14:03:26.407Z,3.30
2018-01-02T14:05:54.606Z,3.87
2018-01-02T14:08:22.099Z,3.77
2018-01-02T14:10:49.522Z,7.27
2018-01-02T14:13:16.962Z,3.80
2018-01-02T14:15:45.182Z,5.57
2018-01-02T14:18:12.638Z,5.70
2018-01-02T14:20:40.099Z,3.20
2018-01-02T14:23:07.536Z,4.03
2018-01-02T14:25:34.966Z,5.27
2018-01-02T14:28:02.394Z,2.10
2018-01-02T14:30:29.830Z,3.70
2018-01-02T14:32:57.266Z,3.03
2018-01-02T14:35:24.714Z,4.00
2018-01-02T14:37:52.146Z,5.07
2018-01-02T14:40:20.350Z,3.40
2018-01-02T14:42:47.783Z,3.73
2018-01-02T14:45:15.218Z,6.67
2018-01-02T14:47:43.415Z,5.00
2018-01-02T14:50:10.854Z,9.20
2018-01-02T14:52:39.083Z,3.53
2018-01-02T14:55:06.522Z,5.73
2018-01-02T14:57:33.958Z,5.43
2018-01-02T15:00:01.391Z,4.40
2018-01-02T15:02:29.594Z,5.07
2018-01-02T15:04:57.030Z,5.40
2018-01-02T15:07:25.231Z,5.10
2018-01-02T15:09:52.667Z,4.20
2018-01-02T15:12:20.098Z,4.50
2018-01-02T15:14:47.538Z,6.77
2018-01-02T15:17:14.970Z,4.33
2018-01-02T15:19:42.411Z,5.40
2018-01-02T15:22:10.331Z,5.40
2018-01-02T15:24:37.772Z,5.63
2018-01-02T15:27:06.017Z,4.00
2018-01-02T15:29:33.438Z,4.60
2018-01-02T15:32:01.663Z,5.53
2018-01-02T15:34:29.106Z,5.23
2018-01-02T15:36:56.538Z,6.17
2018-01-02T15:39:24.016Z,4.53
2018-01-02T15:41:51.439Z,9.47
2018-01-02T15:44:20.525Z,8.77
2018-01-02T15:46:48.019Z,5.57
2018-01-02T15:49:15.505Z,11.73
2018-01-02T15:51:42.958Z,9.10
2018-01-02T15:54:10.406Z,13.73
2018-01-02T15:56:37.892Z,18.10
2018-01-02T15:59:05.306Z,12.70
2018-01-02T16:01:32.754Z,5.90
2018-01-02T16:04:00.322Z,7.83
2018-01-02T16:06:27.737Z,6.97
2018-01-02T16:08:56.008Z,8.50
2018-01-02T16:11:23.501Z,8.70
2018-01-02T16:13:50.910Z,8.53
2018-01-02T16:16:18.354Z,10.40
2018-01-02T16:18:45.786Z,7.47
2018-01-02T16:21:13.275Z,7.53
2018-01-02T16:23:41.134Z,8.07
2018-01-02T16:26:08.560Z,5.73
2018-01-02T16:28:36.041Z,9.13
2018-01-02T16:31:03.508Z,4.33
2018-01-02T16:33:30.928Z,5.53
2018-01-02T16:35:58.367Z,5.77
2018-01-02T16:38:25.891Z,7.13
2018-01-02T16:40:53.368Z,6.20
2018-01-02T16:43:21.601Z,4.43
2018-01-02T16:45:49.077Z,7.67
2018-01-02T16:48:16.507Z,10.63
2018-01-02T16:50:43.995Z,3.70
2018-01-02T16:53:11.465Z,7.07
2018-01-02T16:55:39.737Z,5.90
2018-01-02T16:58:07.795Z,5.53
2018-01-02T17:00:35.222Z,7.33
2018-01-02T17:03:02.718Z,8.30
2018-01-02T17:05:30.131Z,8.97
2018-01-02T17:07:57.617Z,11.73
2018-01-02T17:10:25.094Z,9.03
2018-01-02T17:12:52.514Z,6.40
2018-01-02T17:15:19.998Z,6.13
2018-01-02T17:17:47.419Z,8.33
2018-01-02T17:20:14.850Z,4.63
2018-01-02T17:22:42.332Z,10.03
2018-01-02T17:25:09.809Z,6.53
2018-01-02T17:27:37.244Z,8.40
2018-01-02T17:30:04.726Z,6.83
2018-01-02T17:32:33.718Z,8.30
2018-01-02T17:35:01.138Z,5.47
2018-01-02T17:37:28.626Z,8.67
2018-01-02T17:39:56.126Z,6.57
2018-01-02T17:42:24.370Z,7.97
2018-01-02T17:44:51.787Z,11.83
2018-01-02T17:47:19.282Z,9.07
2018-01-02T17:49:46.749Z,8.23
2018-01-02T17:52:14.162Z,7.93
2018-01-02T17:54:41.608Z,7.60
2018-01-02T17:57:09.094Z,7.10
2018-01-02T17:59:36.574Z,12.40
2018-01-02T18:02:04.041Z,8.40
2018-01-02T18:04:32.314Z,7.93
2018-01-02T18:07:01.040Z,11.20
2018-01-02T18:09:28.553Z,11.07
2018-01-02T18:11:56.021Z,11.83
2018-01-02T18:14:24.223Z,12.03
2018-01-02T18:16:51.716Z,10.67
2018-01-02T18:19:19.190Z,5.57
2018-01-02T18:21:46.769Z,8.10
2018-01-02T18:24:15.039Z,11.27
2018-01-02T18:26:43.277Z,11.47
2018-01-02T18:29:10.703Z,6.47
2018-01-02T18:31:38.189Z,6.43
2018-01-02T18:34:05.782Z,5.37
2018-01-02T18:36:33.255Z,11.50
2018-01-02T18:39:01.507Z,6.90
2018-01-02T18:41:28.931Z,5.60
2018-01-02T18:43:56.390Z,8.70
2018-01-02T18:46:23.826Z,8.93
2018-01-02T18:48:51.317Z,15.43
2018-01-02T18:51:18.798Z,11.20
2018-01-02T18:53:46.304Z,11.23
2018-01-02T18:56:13.753Z,7.93
2018-01-02T18:58:41.250Z,13.37
2018-01-02T19:01:10.237Z,11.43
2018-01-02T19:03:37.728Z,8.07
2018-01-02T19:06:05.999Z,13.73
2018-01-02T19:08:33.562Z,9.50
2018-01-02T19:11:01.804Z,7.63
2018-01-02T19:13:29.266Z,9.50
2018-01-02T19:15:56.854Z,7.80
2018-01-02T19:18:25.038Z,9.80
2018-01-02T19:20:52.524Z,7.97
2018-01-02T19:23:19.990Z,9.00
2018-01-02T19:25:47.461Z,9.10
2018-01-02T19:28:15.024Z,10.93
2018-01-02T19:30:42.505Z,11.13
2018-01-02T19:33:10.110Z,12.83
2018-01-02T19:35:37.593Z,11.43
2018-01-02T19:38:05.085Z,24.80
2018-01-02T19:40:33.338Z,12.47
2018-01-02T19:43:00.813Z,13.57
2018-01-02T19:45:28.286Z,13.37
2018-01-02T19:47:56.525Z,10.47
2018-01-02T19:50:24.043Z,9.13
2018-01-02T19:52:51.507Z,11.30
2018-01-02T19:55:18.990Z,13.63
2018-01-02T19:57:46.452Z,11.77
2018-01-02T20:00:13.934Z,11.60
2018-01-02T20:02:41.413Z,11.17
2018-01-02T20:05:09.665Z,9.43
2018-01-02T20:07:37.903Z,7.37
2018-01-02T20:10:05.374Z,7.50
2018-01-02T20:12:32.849Z,12.40
2018-01-02T20:15:00.413Z,10.37
2018-01-02T20:17:28.026Z,12.77
2018-01-02T20:19:55.494Z,10.97
2018-01-02T20:22:22.971Z,9.80
2018-01-02T20:24:51.951Z,5.80
2018-01-02T20:27:19.445Z,7.30
2018-01-02T20:29:48.019Z,8.30
2018-01-02T20:32:15.506Z,9.87
2018-01-02T20:34:43.075Z,8.20
2018-01-02T20:37:10.545Z,7.93
2018-01-02T20:39:38.009Z,9.77
2018-01-02T20:42:05.504Z,6.80
2018-01-02T20:44:33.071Z,7.20
2018-01-02T20:47:01.319Z,6.77
2018-01-02T20:49:28.794Z,5.17
2018-01-02T20:51:57.070Z,8.23
2018-01-02T20:54:24.541Z,9.33
2018-01-02T20:56:52.786Z,10.40
2018-01-02T20:59:20.369Z,6.07
2018-01-02T21:01:48.754Z,8.30
2018-01-02T21:04:16.987Z,9.90
2018-01-02T21:06:44.463Z,10.00
2018-01-02T21:09:12.040Z,5.27
2018-01-02T21:11:40.282Z,8.67
2018-01-02T21:14:08.729Z,9.10
2018-01-02T21:16:36.206Z,10.10
2018-01-02T21:19:03.677Z,9.07
2018-01-02T21:21:31.170Z,6.40
2018-01-02T21:23:59.437Z,9.60
2018-01-02T21:26:27.106Z,7.03
2018-01-02T21:28:55.333Z,7.60
2018-01-02T21:31:22.806Z,6.23
2018-01-02T21:33:50.282Z,9.13
2018-01-02T21:36:17.750Z,6.20
2018-01-02T21:38:45.990Z,8.87
2018-01-02T21:41:13.981Z,5.47
2018-01-02T21:43:41.867Z,10.17
2018-01-02T21:46:10.129Z,5.93
2018-01-02T21:48:37.601Z,6.37
2018-01-02T21:51:05.840Z,8.07
2018-01-02T21:53:33.314Z,5.70
2018-01-02T21:56:00.787Z,5.03
2018-01-02T21:58:29.029Z,5.33
2018-01-02T22:00:56.497Z,8.33
2018-01-02T22:03:25.481Z,6.63
2018-01-02T22:05:52.953Z,3.70
2018-01-02T22:08:20.430Z,3.50
2018-01-02T22:10:48.661Z,2.63
2018-01-02T22:13:16.662Z,8.40
2018-01-02T22:15:44.894Z,2.70
2018-01-02T22:18:12.394Z,3.60
2018-01-02T22:20:40.661Z,3.23
2018-01-02T22:23:08.236Z,3.13
2018-01-02T22:25:36.825Z,5.27
2018-01-02T22:28:05.071Z,3.87
2018-01-02T22:30:32.789Z,3.80
2018-01-02T22:33:00.263Z,3.63
2018-01-02T22:35:27.741Z,4.93
2018-01-02T22:37:55.217Z,2.67
2018-01-02T22:40:22.702Z,3.10
2018-01-02T22:42:50.883Z,3.20
2018-01-02T22:45:18.356Z,3.93
2018-01-02T22:47:45.834Z,2.83
2018-01-02T22:50:13.341Z,4.87
2018-01-02T22:52:41.578Z,7.43
2018-01-02T22:55:10.553Z,4.53
2018-01-02T22:57:38.031Z,1.80
2018-01-02T23:00:05.509Z,3.93
2018-01-02T23:02:33.816Z,3.93
2018-01-02T23:05:01.290Z,4.13
2018-01-02T23:07:28.761Z,3.53
2018-01-02T23:09:56.266Z,2.40
2018-01-02T23:12:24.502Z,6.03
2018-01-02T23:14:52.770Z,2.73
2018-01-02T23:17:20.262Z,5.33
2018-01-02T23:19:48.497Z,3.80
2018-01-02T23:22:15.986Z,3.40
2018-01-02T23:24:43.550Z,3.57
2018-01-02T23:27:11.895Z,1.97
2018-01-02T23:29:39.369Z,1.87
2018-01-02T23:32:06.838Z,2.10
2018-01-02T23:34:34.402Z,5.50
2018-01-02T23:37:01.865Z,2.87
2018-01-02T23:39:30.106Z,2.80
2018-01-02T23:41:57.564Z,2.90
2018-01-02T23:44:25.032Z,2.30
2018-01-02T23:46:52.509Z,3.53
2018-01-02T23:49:20.746Z,2.20
2018-01-02T23:51:48.214Z,1.17
2018-01-02T23:54:15.698Z,1.23
2018-01-02T23:56:43.933Z,1.00
2018-01-02T23:59:11.358Z,1.67
